Time;durP1;ratioP1;P1;durP2;ratioP2;P2;SDS_P1;SDS_P2;PMS_P1;PMS_P2;Temp;Humidity;BMP_temperature;BMP_pressure;BME280_temperature;BME280_humidity;BME280_pressure;Samples;Min_cycle;Max_cycle;Signal;HPM_P1;HPM_P2
2022/04/29 00:00:36;;;;;;;10.60;5.18;;;;;;;;;;6188426;23;20080;-83
2022/04/29 00:03:02;;;;;;;13.07;5.95;;;;;;;;;;6188663;23;20024;-83
2022/04/29 00:05:29;;;;;;;12.73;6.43;;;;;;;;;;6215285;23;20071;-83
2022/04/29 00:07:55;;;;;;;11.35;5.72;;;;;;;;;;6188647;23;20524;-83
2022/04/29 00:10:21;;;;;;;12.68;5.90;;;;;;;;;;6163656;23;20008;-83
2022/04/29 00:12:48;;;;;;;12.77;5.93;;;;;;;;;;6188696;23;20055;-83
2022/04/29 00:15:15;;;;;;;11.93;6.00;;;;;;;;;;6188380;23;20016;-83
2022/04/29 00:17:41;;;;;;;15.23;5.97;;;;;;;;;;6188571;23;20008;-84
2022/04/29 00:20:08;;;;;;;16.88;6.53;;;;;;;;;;6188268;23;20345;-83
2022/04/29 00:22:34;;;;;;;13.88;5.65;;;;;;;;;;6188336;23;20075;-83
2022/04/29 00:25:00;;;;;;;15.63;5.95;;;;;;;;;;6163590;23;20063;-83
2022/04/29 00:27:27;;;;;;;13.73;5.25;;;;;;;;;;6163321;23;20051;-83
2022/04/29 00:29:53;;;;;;;11.88;4.72;;;;;;;;;;6188306;23;20329;-83
2022/04/29 00:32:18;;;;;;;11.50;5.95;;;;;;;;;;6188529;23;20090;-83
2022/04/29 00:34:45;;;;;;;12.43;5.40;;;;;;;;;;6188300;23;20499;-83
2022/04/29 00:37:11;;;;;;;11.00;5.72;;;;;;;;;;6188538;23;20020;-83
2022/04/29 00:39:37;;;;;;;10.85;5.70;;;;;;;;;;6188298;23;20023;-83
2022/04/29 00:42:21;;;;;;;15.93;6.53;;;;;;;;;;6215422;23;20021;-83
2022/04/29 00:44:47;;;;;;;13.55;6.18;;;;;;;;;;6188194;23;20016;-83
2022/04/29 00:47:14;;;;;;;12.52;5.70;;;;;;;;;;6188277;23;20024;-84
2022/04/29 00:49:41;;;;;;;11.65;5.00;;;;;;;;;;6188300;23;20087;-83
2022/04/29 00:52:11;;;;;;;11.68;5.38;;;;;;;;;;6188337;23;20492;-83
2022/04/29 00:54:38;;;;;;;13.57;5.82;;;;;;;;;;6188359;23;20087;-83
2022/04/29 00:57:07;;;;;;;11.15;6.50;;;;;;;;;;6188258;23;20107;-83
2022/04/29 00:59:39;;;;;;;13.95;6.18;;;;;;;;;;6188209;23;20025;-83
2022/04/29 01:02:08;;;;;;;11.25;5.90;;;;;;;;;;6188408;23;20021;-83
2022/04/29 01:04:37;;;;;;;11.93;7.70;;;;;;;;;;6188130;23;20416;-83
2022/04/29 01:07:04;;;;;;;18.88;6.22;;;;;;;;;;6188172;23;20028;-84
2022/04/29 01:09:30;;;;;;;11.98;6.50;;;;;;;;;;6188025;23;20020;-83
2022/04/29 01:11:56;;;;;;;12.32;6.25;;;;;;;;;;6188403;23;20012;-83
2022/04/29 01:14:22;;;;;;;10.30;5.38;;;;;;;;;;6188387;23;20008;-84
2022/04/29 01:16:48;;;;;;;10.38;5.05;;;;;;;;;;6188148;23;20023;-83
2022/04/29 01:19:14;;;;;;;12.93;5.20;;;;;;;;;;6188031;23;20021;-83
2022/04/29 01:21:41;;;;;;;9.25;5.22;;;;;;;;;;6188104;23;20088;-84
2022/04/29 01:24:08;;;;;;;10.35;5.60;;;;;;;;;;6163403;23;20020;-83
2022/04/29 01:26:34;;;;;;;10.50;5.97;;;;;;;;;;6158538;23;20036;-83
2022/04/29 01:29:01;;;;;;;11.88;6.03;;;;;;;;;;6158489;23;20013;-83
2022/04/29 01:31:28;;;;;;;11.32;5.82;;;;;;;;;;6158285;23;20013;-83
2022/04/29 01:33:55;;;;;;;14.65;6.13;;;;;;;;;;6159209;23;20373;-84
2022/04/29 01:36:21;;;;;;;11.63;6.78;;;;;;;;;;6159915;23;20023;-84
2022/04/29 01:38:47;;;;;;;13.90;6.03;;;;;;;;;;6160252;23;20096;-83
2022/04/29 01:41:13;;;;;;;15.15;6.78;;;;;;;;;;6159995;23;20063;-83
2022/04/29 01:43:39;;;;;;;12.48;6.25;;;;;;;;;;6160305;23;20013;-83
2022/04/29 01:46:05;;;;;;;11.07;6.22;;;;;;;;;;6159883;23;20056;-83
2022/04/29 01:48:31;;;;;;;12.32;6.30;;;;;;;;;;6160004;23;20013;-83
2022/04/29 01:50:57;;;;;;;11.20;5.75;;;;;;;;;;6159948;23;20017;-83
2022/04/29 01:53:23;;;;;;;12.68;5.57;;;;;;;;;;6160094;23;20013;-83
2022/04/29 01:55:49;;;;;;;10.90;5.88;;;;;;;;;;6159890;23;20043;-83
2022/04/29 01:58:15;;;;;;;15.85;6.00;;;;;;;;;;6160053;23;20118;-83
2022/04/29 02:00:41;;;;;;;13.68;6.38;;;;;;;;;;6186163;23;20013;-83
2022/04/29 02:03:07;;;;;;;11.40;5.93;;;;;;;;;;6160167;23;20020;-83
2022/04/29 02:05:33;;;;;;;10.38;5.88;;;;;;;;;;6159761;23;20017;-84
2022/04/29 02:08:00;;;;;;;12.70;5.93;;;;;;;;;;6159853;23;20067;-83
2022/04/29 02:10:26;;;;;;;13.38;5.70;;;;;;;;;;6159847;23;20075;-83
2022/04/29 02:12:52;;;;;;;13.73;6.10;;;;;;;;;;6160068;23;20504;-83
2022/04/29 02:15:20;;;;;;;12.18;5.68;;;;;;;;;;6135171;23;20520;-83
2022/04/29 02:17:46;;;;;;;13.95;6.03;;;;;;;;;;6159857;23;20013;-83
2022/04/29 02:20:12;;;;;;;12.88;6.43;;;;;;;;;;6159638;23;20005;-83
2022/04/29 02:22:39;;;;;;;9.73;5.63;;;;;;;;;;6160303;23;20041;-83
2022/04/29 02:25:05;;;;;;;11.45;6.18;;;;;;;;;;6159752;23;20009;-83
2022/04/29 02:27:31;;;;;;;10.18;5.85;;;;;;;;;;6185939;23;20084;-84
2022/04/29 02:29:57;;;;;;;11.90;6.47;;;;;;;;;;6159794;23;20136;-84
2022/04/29 02:32:24;;;;;;;10.77;5.82;;;;;;;;;;6159613;23;20071;-84
2022/04/29 02:34:51;;;;;;;11.57;5.90;;;;;;;;;;6159636;23;20073;-83
2022/04/29 02:37:17;;;;;;;10.68;6.28;;;;;;;;;;6159402;23;20319;-85
2022/04/29 02:39:43;;;;;;;13.05;6.60;;;;;;;;;;6135113;23;20048;-84
2022/04/29 02:42:09;;;;;;;14.68;7.15;;;;;;;;;;6159463;23;20036;-83
2022/04/29 02:44:35;;;;;;;10.18;6.38;;;;;;;;;;6186000;23;20084;-84
2022/04/29 02:47:07;;;;;;;12.77;6.22;;;;;;;;;;6159065;23;20036;-84
2022/04/29 02:49:33;;;;;;;15.13;6.75;;;;;;;;;;6159714;23;20013;-83
2022/04/29 02:51:59;;;;;;;12.13;6.30;;;;;;;;;;6159345;23;20039;-84
2022/04/29 02:54:25;;;;;;;12.27;6.43;;;;;;;;;;6160022;23;20044;-83
2022/04/29 02:56:52;;;;;;;13.52;6.90;;;;;;;;;;6159255;23;20410;-84
2022/04/29 02:59:21;;;;;;;13.35;6.75;;;;;;;;;;6159517;23;20017;-83
2022/04/29 03:01:48;;;;;;;15.52;6.50;;;;;;;;;;6159338;23;20024;-84
2022/04/29 03:04:14;;;;;;;13.93;6.40;;;;;;;;;;6159319;23;20378;-83
2022/04/29 03:06:40;;;;;;;11.98;6.63;;;;;;;;;;6185487;23;20017;-83
2022/04/29 03:09:06;;;;;;;16.35;6.72;;;;;;;;;;6159432;23;20094;-83
2022/04/29 03:11:32;;;;;;;12.48;6.90;;;;;;;;;;6159266;23;20012;-83
2022/04/29 03:13:58;;;;;;;11.77;6.43;;;;;;;;;;6159354;23;20011;-82
2022/04/29 03:16:24;;;;;;;11.35;6.78;;;;;;;;;;6159023;23;20031;-84
2022/04/29 03:18:50;;;;;;;10.75;6.38;;;;;;;;;;6159287;23;20017;-84
2022/04/29 03:21:18;;;;;;;14.82;6.93;;;;;;;;;;6159086;23;20088;-83
2022/04/29 03:23:46;;;;;;;11.00;6.53;;;;;;;;;;6185598;23;20075;-83
2022/04/29 03:26:12;;;;;;;15.05;6.97;;;;;;;;;;6185129;23;20470;-83
2022/04/29 03:28:38;;;;;;;12.20;6.50;;;;;;;;;;6188858;23;20021;-84
2022/04/29 03:31:04;;;;;;;11.00;6.53;;;;;;;;;;6188760;23;20048;-83
2022/04/29 03:33:30;;;;;;;14.77;6.78;;;;;;;;;;6164205;23;20438;-83
2022/04/29 03:35:56;;;;;;;12.48;6.90;;;;;;;;;;6163891;23;20017;-84
2022/04/29 03:38:22;;;;;;;14.30;6.47;;;;;;;;;;6215449;23;20020;-84
2022/04/29 03:40:50;;;;;;;12.02;6.53;;;;;;;;;;6188925;23;20070;-83
2022/04/29 03:43:16;;;;;;;21.13;7.05;;;;;;;;;;6215453;23;20020;-84
2022/04/29 03:45:42;;;;;;;12.95;6.57;;;;;;;;;;6188758;23;20012;-84
2022/04/29 03:48:08;;;;;;;12.13;6.35;;;;;;;;;;6188526;23;20392;-83
2022/04/29 03:50:34;;;;;;;10.75;6.43;;;;;;;;;;6188887;23;20017;-83
2022/04/29 03:53:01;;;;;;;12.18;6.60;;;;;;;;;;6188696;23;20437;-83
2022/04/29 03:55:28;;;;;;;12.23;6.00;;;;;;;;;;6188723;23;20013;-83
2022/04/29 03:57:55;;;;;;;13.52;6.47;;;;;;;;;;6163255;23;20396;-83
2022/04/29 04:00:21;;;;;;;11.55;6.40;;;;;;;;;;6188724;23;20012;-83
2022/04/29 04:02:47;;;;;;;12.05;5.70;;;;;;;;;;6188475;23;20012;-84
2022/04/29 04:05:13;;;;;;;8.95;4.85;;;;;;;;;;6188177;23;20091;-84
2022/04/29 04:07:40;;;;;;;11.25;5.50;;;;;;;;;;6188351;23;20032;-84
2022/04/29 04:10:06;;;;;;;10.32;6.20;;;;;;;;;;6188622;23;20023;-84
2022/04/29 04:12:49;;;;;;;12.05;6.60;;;;;;;;;;6188390;23;20012;-83
2022/04/29 04:15:16;;;;;;;12.48;5.90;;;;;;;;;;6163852;23;20446;-84
2022/04/29 04:17:42;;;;;;;11.30;6.55;;;;;;;;;;6188327;23;20096;-84
2022/04/29 04:20:09;;;;;;;10.27;5.85;;;;;;;;;;6188671;23;20124;-83
2022/04/29 04:22:35;;;;;;;11.57;6.07;;;;;;;;;;6163434;23;20012;-84
2022/04/29 04:25:02;;;;;;;10.32;6.32;;;;;;;;;;6188573;23;20075;-84
2022/04/29 04:27:28;;;;;;;13.07;7.28;;;;;;;;;;6162997;23;20016;-84
2022/04/29 04:29:54;;;;;;;14.82;7.05;;;;;;;;;;6188570;23;20107;-84
2022/04/29 04:32:20;;;;;;;16.05;6.68;;;;;;;;;;6188782;23;20040;-84
2022/04/29 04:34:57;;;;;;;16.73;8.02;;;;;;;;;;6188578;23;20008;-84
2022/04/29 04:37:25;;;;;;;11.38;7.45;;;;;;;;;;6188412;23;20028;-83
2022/04/29 04:39:52;;;;;;;13.82;7.10;;;;;;;;;;6163751;23;20021;-83
2022/04/29 04:42:19;;;;;;;14.10;7.43;;;;;;;;;;6188196;23;20095;-84
2022/04/29 04:44:48;;;;;;;12.95;6.68;;;;;;;;;;6188485;23;20078;-83
2022/04/29 04:47:14;;;;;;;17.20;7.88;;;;;;;;;;6188095;23;20132;-82
2022/04/29 04:49:40;;;;;;;14.73;8.25;;;;;;;;;;6163652;23;20009;-83
2022/04/29 04:52:08;;;;;;;13.98;7.60;;;;;;;;;;6188270;23;20016;-83
2022/04/29 04:54:34;;;;;;;17.67;7.90;;;;;;;;;;6188855;23;20017;-83
2022/04/29 04:57:00;;;;;;;17.77;8.63;;;;;;;;;;6188038;23;20020;-83
2022/04/29 04:59:26;;;;;;;17.55;8.27;;;;;;;;;;6163625;23;20066;-83
2022/04/29 05:01:53;;;;;;;16.35;7.35;;;;;;;;;;6188215;23;20091;-84
2022/04/29 05:04:20;;;;;;;14.32;8.15;;;;;;;;;;6163717;23;20016;-83
2022/04/29 05:06:46;;;;;;;17.38;7.35;;;;;;;;;;6163083;23;20116;-83
2022/04/29 05:09:12;;;;;;;18.85;7.47;;;;;;;;;;6189355;23;20044;-83
2022/04/29 05:11:38;;;;;;;11.35;6.18;;;;;;;;;;6190410;23;20051;-84
2022/04/29 05:14:04;;;;;;;15.15;6.80;;;;;;;;;;6190102;23;20017;-83
2022/04/29 05:16:30;;;;;;;11.50;6.55;;;;;;;;;;6190261;23;20063;-83
2022/04/29 05:18:56;;;;;;;15.35;6.22;;;;;;;;;;6190066;23;20016;-83
2022/04/29 05:21:22;;;;;;;14.70;6.00;;;;;;;;;;6190276;23;20323;-84
2022/04/29 05:23:48;;;;;;;10.45;5.88;;;;;;;;;;6189889;23;20066;-84
2022/04/29 05:26:14;;;;;;;12.38;6.63;;;;;;;;;;6189754;23;20091;-83
2022/04/29 05:28:40;;;;;;;13.73;6.82;;;;;;;;;;6160143;23;20052;-83
2022/04/29 05:31:06;;;;;;;14.32;6.65;;;;;;;;;;6160344;23;20093;-83
2022/04/29 05:33:32;;;;;;;13.75;7.25;;;;;;;;;;6160095;23;20013;-84
2022/04/29 05:35:59;;;;;;;17.92;7.00;;;;;;;;;;6160158;23;20020;-83
2022/04/29 05:42:14;;;;;;;11.35;7.00;;;;;;;;;;6159993;23;20024;-83
2022/04/29 05:43:56;;;;;;;10.50;5.95;;;;;;;;;;6159978;23;20237;-84
2022/04/29 05:46:22;;;;;;;10.48;5.47;;;;;;;;;;6159985;23;20015;-83
2022/04/29 05:48:48;;;;;;;11.73;5.43;;;;;;;;;;6159933;23;20320;-83
2022/04/29 05:51:14;;;;;;;12.27;5.30;;;;;;;;;;6135518;23;20024;-83
2022/04/29 05:53:40;;;;;;;12.77;5.30;;;;;;;;;;6159887;23;20061;-84
2022/04/29 05:56:06;;;;;;;11.40;5.00;;;;;;;;;;6185744;23;20021;-83
2022/04/29 05:58:32;;;;;;;12.52;5.53;;;;;;;;;;6159690;23;20021;-83
2022/04/29 06:00:58;;;;;;;12.57;5.88;;;;;;;;;;6160116;23;20320;-84
2022/04/29 06:03:24;;;;;;;8.35;4.75;;;;;;;;;;6159752;23;20021;-84
2022/04/29 06:05:50;;;;;;;11.40;5.00;;;;;;;;;;6159967;23;20013;-84
2022/04/29 06:08:16;;;;;;;11.07;5.88;;;;;;;;;;6186393;23;20013;-83
2022/04/29 06:10:42;;;;;;;10.10;4.18;;;;;;;;;;6159920;23;20043;-84
2022/04/29 06:13:08;;;;;;;13.68;5.13;;;;;;;;;;6186473;23;20013;-84
2022/04/29 06:15:35;;;;;;;8.30;3.85;;;;;;;;;;6159971;23;20411;-84
2022/04/29 06:18:01;;;;;;;7.80;3.67;;;;;;;;;;6134914;23;20065;-84
2022/04/29 06:20:29;;;;;;;9.68;3.90;;;;;;;;;;6159459;23;20013;-85
2022/04/29 06:22:55;;;;;;;9.70;3.85;;;;;;;;;;6186283;23;20009;-84
2022/04/29 06:25:21;;;;;;;8.70;2.70;;;;;;;;;;6135164;23;20469;-84
2022/04/29 06:27:47;;;;;;;7.40;2.95;;;;;;;;;;6178352;23;20016;-83
2022/04/29 06:30:13;;;;;;;7.25;3.28;;;;;;;;;;6189498;23;20019;-84
2022/04/29 06:32:39;;;;;;;9.38;3.85;;;;;;;;;;6189378;23;20338;-83
2022/04/29 06:35:06;;;;;;;8.38;3.35;;;;;;;;;;6189478;23;20081;-84
2022/04/29 06:37:32;;;;;;;8.02;2.70;;;;;;;;;;6189395;23;20084;-84
2022/04/29 06:39:58;;;;;;;11.80;4.25;;;;;;;;;;6189310;23;20087;-84
2022/04/29 06:42:24;;;;;;;7.88;2.92;;;;;;;;;;6189462;23;20050;-84
2022/04/29 06:44:50;;;;;;;11.48;3.00;;;;;;;;;;6189230;23;20020;-85
2022/04/29 06:47:17;;;;;;;7.78;3.10;;;;;;;;;;6189402;23;20094;-84
2022/04/29 06:49:43;;;;;;;11.93;3.72;;;;;;;;;;6189265;23;20008;-83
2022/04/29 06:52:09;;;;;;;10.30;2.90;;;;;;;;;;6189545;23;20426;-83
2022/04/29 06:54:35;;;;;;;10.07;4.10;;;;;;;;;;6188930;23;20385;-84
2022/04/29 06:57:01;;;;;;;9.82;3.20;;;;;;;;;;6188862;23;20511;-84
2022/04/29 06:59:27;;;;;;;9.73;3.38;;;;;;;;;;6188687;23;20013;-85
2022/04/29 07:01:54;;;;;;;8.02;3.33;;;;;;;;;;6188795;23;20020;-83
2022/04/29 07:04:20;;;;;;;8.13;3.20;;;;;;;;;;6188668;23;20027;-84
2022/04/29 07:06:46;;;;;;;6.30;3.45;;;;;;;;;;6188820;23;20095;-83
2022/04/29 07:09:12;;;;;;;7.20;3.40;;;;;;;;;;6188510;23;20041;-84
2022/04/29 07:11:38;;;;;;;12.10;3.42;;;;;;;;;;6188895;23;20009;-84
2022/04/29 07:14:06;;;;;;;9.88;4.07;;;;;;;;;;6188506;23;20012;-85
2022/04/29 07:16:32;;;;;;;9.90;3.50;;;;;;;;;;6215434;23;20071;-84
2022/04/29 07:18:58;;;;;;;10.27;3.83;;;;;;;;;;6188557;23;20013;-84
2022/04/29 07:21:24;;;;;;;7.47;3.60;;;;;;;;;;6188682;23;20020;-84
2022/04/29 07:23:50;;;;;;;9.77;3.63;;;;;;;;;;6188351;23;20019;-84
2022/04/29 07:26:16;;;;;;;8.70;2.97;;;;;;;;;;6187739;23;20087;-84
2022/04/29 07:28:42;;;;;;;8.15;3.50;;;;;;;;;;6133944;23;20446;-84
2022/04/29 07:31:09;;;;;;;10.50;3.85;;;;;;;;;;6158775;23;20013;-84
2022/04/29 07:33:35;;;;;;;9.80;3.55;;;;;;;;;;6134181;23;20013;-84
2022/04/29 07:41:47;;;;;;;6.70;3.50;;;;;;;;;;6128916;23;20028;-84
2022/04/29 07:44:13;;;;;;;6.00;2.90;;;;;;;;;;6157423;23;20017;-84
2022/04/29 07:46:42;;;;;;;6.95;3.08;;;;;;;;;;6134383;23;20035;-84
2022/04/29 07:49:08;;;;;;;7.10;3.10;;;;;;;;;;6185320;23;20055;-83
2022/04/29 07:51:34;;;;;;;8.15;2.45;;;;;;;;;;6134332;23;20406;-85
2022/04/29 07:54:00;;;;;;;6.43;2.97;;;;;;;;;;6158709;23;20093;-84
2022/04/29 07:56:26;;;;;;;5.38;2.70;;;;;;;;;;6134978;23;20284;-84
2022/04/29 07:58:55;;;;;;;6.90;2.22;;;;;;;;;;6134160;23;20071;-85
2022/04/29 08:01:21;;;;;;;6.32;1.90;;;;;;;;;;6158825;23;20424;-85
2022/04/29 08:03:47;;;;;;;5.82;3.40;;;;;;;;;;6158786;23;20052;-84
2022/04/29 08:06:13;;;;;;;5.70;2.05;;;;;;;;;;6185214;23;20303;-85
2022/04/29 08:08:39;;;;;;;6.93;2.22;;;;;;;;;;6158523;23;20439;-85
2022/04/29 08:11:05;;;;;;;8.25;2.38;;;;;;;;;;6158813;23;20009;-84
2022/04/29 08:13:32;;;;;;;6.90;2.35;;;;;;;;;;6134120;23;20017;-84
2022/04/29 08:16:01;;;;;;;8.93;2.58;;;;;;;;;;6158164;23;20020;-85
2022/04/29 08:18:27;;;;;;;7.45;2.20;;;;;;;;;;6158188;23;20088;-84
2022/04/29 08:20:53;;;;;;;9.85;2.70;;;;;;;;;;6158098;23;20092;-85
2022/04/29 08:23:19;;;;;;;5.97;2.25;;;;;;;;;;6158696;23;20075;-83
2022/04/29 08:25:45;;;;;;;6.35;2.33;;;;;;;;;;6184599;23;20382;-84
2022/04/29 08:28:11;;;;;;;6.70;1.92;;;;;;;;;;6182133;23;20016;-86
2022/04/29 08:30:37;;;;;;;6.90;2.28;;;;;;;;;;6188206;23;20019;-84
2022/04/29 08:33:03;;;;;;;8.13;2.47;;;;;;;;;;6187327;23;20017;-84
2022/04/29 08:35:29;;;;;;;8.52;2.05;;;;;;;;;;6186558;23;20471;-85
2022/04/29 08:37:57;;;;;;;8.43;1.88;;;;;;;;;;6163465;23;20023;-83
2022/04/29 08:40:23;;;;;;;8.02;2.50;;;;;;;;;;6188991;23;20475;-85
2022/04/29 08:42:49;;;;;;;8.48;2.70;;;;;;;;;;6188103;23;20014;-86
2022/04/29 08:45:16;;;;;;;6.75;2.30;;;;;;;;;;6188246;23;20497;-86
2022/04/29 08:47:43;;;;;;;6.43;1.65;;;;;;;;;;6188168;23;20476;-85
2022/04/29 08:50:10;;;;;;;6.60;2.17;;;;;;;;;;6163758;23;20020;-84
2022/04/29 08:52:37;;;;;;;5.65;2.47;;;;;;;;;;6188123;23;20040;-85
2022/04/29 09:00:33;;;;;;;9.35;2.60;;;;;;;;;;6188160;23;20047;-85
2022/04/29 09:03:00;;;;;;;5.97;2.05;;;;;;;;;;6188355;23;20023;-84
2022/04/29 09:05:27;;;;;;;8.52;2.00;;;;;;;;;;6188048;23;20017;-84
2022/04/29 09:07:53;;;;;;;6.95;2.45;;;;;;;;;;6185882;23;20013;-91
2022/04/29 09:10:19;;;;;;;9.45;2.05;;;;;;;;;;6188498;23;20013;-85
2022/04/29 09:12:45;;;;;;;5.68;1.95;;;;;;;;;;6214790;23;20013;-85
2022/04/29 09:15:12;;;;;;;6.30;2.00;;;;;;;;;;6187959;23;20016;-85
2022/04/29 09:17:39;;;;;;;7.93;2.70;;;;;;;;;;6188226;23;20453;-84
2022/04/29 09:20:12;;;;;;;7.72;2.42;;;;;;;;;;6188147;23;20012;-85
2022/04/29 09:22:39;;;;;;;7.30;2.42;;;;;;;;;;6214967;23;20015;-85
2022/04/29 09:25:05;;;;;;;8.02;2.10;;;;;;;;;;6214650;23;20020;-85
2022/04/29 09:27:51;;;;;;;7.53;2.05;;;;;;;;;;6187763;23;20036;-85
2022/04/29 09:30:17;;;;;;;;;;;;;;;;;;6188640;23;20013;-85
2022/04/29 09:32:48;;;;;;;10.13;2.78;;;;;;;;;;6215304;23;20277;-84
2022/04/29 09:35:14;;;;;;;9.82;2.50;;;;;;;;;;6188048;23;20024;-86
2022/04/29 09:39:26;;;;;;;7.13;2.38;;;;;;;;;;6188244;23;20017;-84
2022/04/29 09:40:37;;;;;;;9.95;2.42;;;;;;;;;;6187827;23;20071;-87
2022/04/29 09:43:03;;;;;;;7.25;2.45;;;;;;;;;;6188462;23;20016;-89
2022/04/29 09:45:29;;;;;;;8.73;2.60;;;;;;;;;;6188052;23;20020;-84
2022/04/29 09:47:56;;;;;;;7.13;2.83;;;;;;;;;;6188428;23;20139;-84
2022/04/29 09:50:23;;;;;;;8.02;2.40;;;;;;;;;;6188133;23;20009;-84
2022/04/29 09:52:49;;;;;;;7.90;2.58;;;;;;;;;;6163394;23;20051;-86
2022/04/29 09:55:19;;;;;;;6.15;2.67;;;;;;;;;;6215104;23;20020;-84
2022/04/29 09:57:49;;;;;;;8.48;2.90;;;;;;;;;;6165021;23;20389;-85
2022/04/29 10:00:16;;;;;;;7.35;3.40;;;;;;;;;;6189629;23;20445;-85
2022/04/29 10:02:42;;;;;;;8.15;3.42;;;;;;;;;;6190372;23;20048;-85
2022/04/29 10:05:08;;;;;;;10.70;3.42;;;;;;;;;;6189949;23;20051;-85
2022/04/29 10:07:35;;;;;;;6.78;2.92;;;;;;;;;;6189776;23;20404;-85
2022/04/29 10:10:03;;;;;;;11.85;3.70;;;;;;;;;;6164634;23;20012;-85
2022/04/29 10:12:29;;;;;;;7.85;3.53;;;;;;;;;;6164974;23;20040;-87
2022/04/29 10:15:04;;;;;;;6.38;3.10;;;;;;;;;;6164583;23;20008;-84
2022/04/29 10:23:12;;;;;;;7.30;2.92;;;;;;;;;;6189744;23;20021;-86
2022/04/29 10:25:46;;;;;;;7.18;2.95;;;;;;;;;;6189266;23;20345;-85
2022/04/29 10:28:20;;;;;;;5.35;3.00;;;;;;;;;;6189324;23;20019;-86
2022/04/29 10:30:46;;;;;;;9.63;4.45;;;;;;;;;;6189491;23;20027;-85
2022/04/29 10:33:25;;;;;;;9.50;4.65;;;;;;;;;;6162123;23;20017;-84
2022/04/29 10:35:53;;;;;;;11.20;5.32;;;;;;;;;;6189239;23;20434;-85
2022/04/29 10:38:39;;;;;;;8.63;4.80;;;;;;;;;;6164567;23;20009;-86
2022/04/29 10:41:08;;;;;;;7.13;4.40;;;;;;;;;;6189205;23;20016;-85
2022/04/29 10:43:40;;;;;;;11.73;4.85;;;;;;;;;;6189416;23;20028;-86
2022/04/29 10:46:07;;;;;;;8.60;4.57;;;;;;;;;;6189024;23;20013;-85
2022/04/29 10:48:37;;;;;;;8.18;3.72;;;;;;;;;;6187116;23;20020;-86
2022/04/29 10:51:10;;;;;;;7.32;3.70;;;;;;;;;;6215613;23;20067;-86
2022/04/29 10:53:41;;;;;;;7.10;3.85;;;;;;;;;;6189359;23;20100;-86
2022/04/29 10:56:25;;;;;;;7.45;4.10;;;;;;;;;;6189048;23;20013;-85
2022/04/29 10:58:51;;;;;;;7.47;3.83;;;;;;;;;;6189262;23;20027;-86
2022/04/29 11:01:18;;;;;;;7.22;4.63;;;;;;;;;;6188902;23;20013;-84
2022/04/29 11:03:46;;;;;;;7.97;4.63;;;;;;;;;;6189325;23;20294;-86
2022/04/29 11:06:13;;;;;;;7.95;3.58;;;;;;;;;;6163743;23;20040;-85
2022/04/29 11:08:43;;;;;;;8.25;3.72;;;;;;;;;;6187792;23;20013;-87
2022/04/29 11:11:09;;;;;;;8.10;4.30;;;;;;;;;;6164176;23;20008;-88
2022/04/29 11:13:37;;;;;;;8.35;5.18;;;;;;;;;;6188126;23;20012;-85
2022/04/29 11:16:08;;;;;;;8.63;4.90;;;;;;;;;;6188754;23;20062;-84
2022/04/29 11:18:34;;;;;;;11.68;4.82;;;;;;;;;;6214596;23;20023;-85
2022/04/29 11:24:40;;;;;;;12.27;5.10;;;;;;;;;;6164017;23;20013;-85
2022/04/29 11:26:31;;;;;;;10.57;5.20;;;;;;;;;;6184882;23;19916;-84
2022/04/29 11:28:57;;;;;;;9.38;5.20;;;;;;;;;;6159240;23;20024;-85
2022/04/29 11:31:24;;;;;;;10.45;4.55;;;;;;;;;;6158927;23;20068;-85
2022/04/29 11:33:50;;;;;;;8.45;5.07;;;;;;;;;;6159350;23;20009;-85
2022/04/29 11:36:15;;;;;;;8.57;4.75;;;;;;;;;;6158840;23;20101;-84
2022/04/29 11:38:45;;;;;;;8.90;5.30;;;;;;;;;;6134676;23;20410;-84
2022/04/29 11:41:15;;;;;;;8.23;4.68;;;;;;;;;;6158830;23;20017;-85
2022/04/29 11:43:41;;;;;;;6.30;4.18;;;;;;;;;;6159065;23;20024;-84
2022/04/29 11:46:09;;;;;;;8.43;4.75;;;;;;;;;;6158788;23;20009;-84
2022/04/29 11:48:35;;;;;;;7.28;3.90;;;;;;;;;;6134438;23;20013;-84
2022/04/29 11:51:04;;;;;;;8.60;3.70;;;;;;;;;;6159086;23;20013;-84
2022/04/29 11:53:30;;;;;;;12.07;3.90;;;;;;;;;;6134288;23;20074;-84
2022/04/29 11:55:56;;;;;;;10.13;4.20;;;;;;;;;;6134389;23;20084;-84
2022/04/29 11:58:22;;;;;;;6.32;4.00;;;;;;;;;;6158887;23;20013;-84
2022/04/29 12:00:56;;;;;;;12.63;4.15;;;;;;;;;;6158838;23;20009;-84
2022/04/29 12:03:23;;;;;;;10.75;3.75;;;;;;;;;;6158942;23;20016;-84
2022/04/29 12:05:49;;;;;;;13.38;4.22;;;;;;;;;;6133996;23;20016;-87
2022/04/29 12:08:17;;;;;;;7.95;3.78;;;;;;;;;;6158828;23;20021;-84
2022/04/29 12:10:45;;;;;;;8.20;3.90;;;;;;;;;;6158881;23;20013;-85
2022/04/29 12:13:11;;;;;;;7.03;3.90;;;;;;;;;;6158361;23;20013;-84
2022/04/29 12:15:38;;;;;;;7.40;4.50;;;;;;;;;;6158124;23;20097;-84
2022/04/29 12:18:09;;;;;;;9.30;4.10;;;;;;;;;;6157911;23;20020;-83
2022/04/29 12:20:35;;;;;;;11.32;4.20;;;;;;;;;;6159447;23;20029;-84
2022/04/29 12:23:28;;;;;;;10.00;4.80;;;;;;;;;;6158433;23;20328;-84
2022/04/29 12:25:55;;;;;;;9.32;3.70;;;;;;;;;;6154311;23;20076;-84
2022/04/29 12:28:22;;;;;;;8.73;3.78;;;;;;;;;;6184532;23;20021;-85
2022/04/29 12:36:53;;;;;;;8.07;3.78;;;;;;;;;;6188173;23;20020;-84
2022/04/29 12:39:27;;;;;;;8.00;3.57;;;;;;;;;;6163660;23;20013;-84
2022/04/29 12:42:06;;;;;;;9.52;3.88;;;;;;;;;;6188298;23;20013;-84
2022/04/29 12:47:31;;;;;;;7.20;3.58;;;;;;;;;;6215142;23;20038;-84
2022/04/29 12:50:18;;;;;;;6.50;3.30;;;;;;;;;;6188638;23;20012;-84
2022/04/29 12:52:50;;;;;;;8.02;3.40;;;;;;;;;;6163302;23;20013;-85
2022/04/29 12:55:16;;;;;;;9.70;3.58;;;;;;;;;;6188430;23;20024;-84
2022/04/29 12:57:46;;;;;;;8.95;3.60;;;;;;;;;;6214703;23;20021;-84
2022/04/29 13:00:21;;;;;;;6.95;3.28;;;;;;;;;;6188473;23;20457;-84
2022/04/29 13:02:57;;;;;;;5.50;2.70;;;;;;;;;;6188426;23;20020;-84
2022/04/29 13:05:23;;;;;;;7.70;3.20;;;;;;;;;;6163897;23;20047;-83
2022/04/29 13:07:49;;;;;;;7.95;3.00;;;;;;;;;;6187927;23;20341;-83
2022/04/29 13:10:17;;;;;;;5.22;2.35;;;;;;;;;;6163579;23;20017;-84
2022/04/29 13:12:44;;;;;;;7.93;3.17;;;;;;;;;;6161533;23;20102;-84
2022/04/29 13:15:11;;;;;;;7.28;3.28;;;;;;;;;;6188370;23;20075;-84
2022/04/29 13:17:37;;;;;;;7.80;3.10;;;;;;;;;;6188464;23;20441;-84
2022/04/29 13:20:05;;;;;;;14.73;3.08;;;;;;;;;;6163858;23;20023;-84
2022/04/29 13:22:30;;;;;;;7.70;2.97;;;;;;;;;;6214989;23;20013;-84
2022/04/29 13:24:59;;;;;;;5.85;2.67;;;;;;;;;;6188140;23;20012;-84
2022/04/29 13:27:25;;;;;;;7.63;2.50;;;;;;;;;;6187594;23;20028;-84
2022/04/29 13:29:51;;;;;;;4.80;2.60;;;;;;;;;;6189055;23;20142;-85
2022/04/29 13:32:17;;;;;;;8.45;3.10;;;;;;;;;;6189851;23;20039;-83
2022/04/29 13:34:43;;;;;;;6.55;3.00;;;;;;;;;;6216794;23;20024;-84
2022/04/29 13:37:09;;;;;;;8.68;2.70;;;;;;;;;;6190243;23;20035;-84
2022/04/29 13:39:35;;;;;;;6.65;2.70;;;;;;;;;;6189964;23;20017;-84
2022/04/29 13:42:01;;;;;;;9.05;3.30;;;;;;;;;;6189958;23;20019;-83
2022/04/29 13:44:28;;;;;;;8.25;2.90;;;;;;;;;;6190151;23;20040;-83
2022/04/29 13:46:54;;;;;;;8.30;2.70;;;;;;;;;;6189716;23;20027;-83
2022/04/29 13:49:20;;;;;;;5.60;2.75;;;;;;;;;;6165362;23;20087;-83
2022/04/29 13:51:46;;;;;;;6.50;2.83;;;;;;;;;;6216871;23;20008;-84
2022/04/29 13:54:12;;;;;;;6.75;2.95;;;;;;;;;;6189736;23;20016;-83
2022/04/29 13:56:38;;;;;;;6.85;3.10;;;;;;;;;;6189924;23;20063;-84
2022/04/29 13:59:04;;;;;;;8.25;2.47;;;;;;;;;;6189689;23;20020;-87
2022/04/29 14:01:31;;;;;;;9.82;2.90;;;;;;;;;;6165031;23;20013;-84
2022/04/29 14:03:57;;;;;;;9.27;3.00;;;;;;;;;;6189906;23;20095;-84
2022/04/29 14:06:22;;;;;;;5.75;2.80;;;;;;;;;;6189759;23;20465;-84
2022/04/29 14:08:48;;;;;;;7.97;2.75;;;;;;;;;;6164693;23;20044;-84
2022/04/29 14:11:15;;;;;;;5.95;2.63;;;;;;;;;;6189834;23;20477;-83
2022/04/29 14:13:42;;;;;;;9.60;3.17;;;;;;;;;;6189561;23;20370;-83
2022/04/29 14:16:09;;;;;;;7.13;3.00;;;;;;;;;;6189725;23;20399;-84
2022/04/29 14:18:35;;;;;;;6.90;2.75;;;;;;;;;;6189613;23;20024;-84
2022/04/29 14:21:01;;;;;;;10.45;3.10;;;;;;;;;;6189695;23;20070;-83
2022/04/29 14:23:27;;;;;;;8.35;2.90;;;;;;;;;;6189567;23;20020;-83
2022/04/29 14:25:52;;;;;;;6.35;3.10;;;;;;;;;;6164744;23;20341;-84
2022/04/29 14:28:18;;;;;;;13.52;3.03;;;;;;;;;;6164278;23;20088;-84
2022/04/29 14:30:45;;;;;;;8.13;3.15;;;;;;;;;;6189683;23;20012;-83
2022/04/29 14:33:11;;;;;;;7.25;3.47;;;;;;;;;;6164545;23;20047;-84
2022/04/29 14:35:37;;;;;;;7.93;3.45;;;;;;;;;;6189530;23;20017;-83
2022/04/29 14:38:05;;;;;;;9.27;3.67;;;;;;;;;;6189307;23;20138;-83
2022/04/29 14:40:32;;;;;;;6.32;3.00;;;;;;;;;;6216003;23;20538;-83
2022/04/29 14:42:58;;;;;;;9.82;3.00;;;;;;;;;;6189018;23;20445;-83
2022/04/29 14:45:24;;;;;;;8.30;3.25;;;;;;;;;;6164593;23;20019;-82
2022/04/29 14:47:50;;;;;;;5.53;3.20;;;;;;;;;;6189075;23;20500;-83
2022/04/29 14:50:17;;;;;;;7.88;3.45;;;;;;;;;;6189392;23;20016;-83
2022/04/29 14:52:43;;;;;;;7.07;2.88;;;;;;;;;;6215812;23;20044;-82
2022/04/29 14:55:11;;;;;;;8.25;3.70;;;;;;;;;;6189463;23;20363;-83
2022/04/29 14:57:38;;;;;;;12.20;3.95;;;;;;;;;;6189391;23;20016;-83
2022/04/29 15:00:05;;;;;;;6.75;3.63;;;;;;;;;;6188485;23;20020;-82
2022/04/29 15:02:32;;;;;;;8.00;3.35;;;;;;;;;;6189426;23;20016;-83
2022/04/29 15:04:58;;;;;;;6.88;3.83;;;;;;;;;;6187478;23;20445;-83
2022/04/29 15:07:25;;;;;;;8.80;4.72;;;;;;;;;;6189085;23;20020;-83